Time;durP1;ratioP1;P1;durP2;ratioP2;P2;SDS_P1;SDS_P2;PMS_P1;PMS_P2;Temp;Humidity;BMP_temperature;BMP_pressure;BME280_temperature;BME280_humidity;BME280_pressure;Samples;Min_cycle;Max_cycle;Signal;HPM_P1;HPM_P2
2023/11/04 00:02:09;;;;;;;3.63;1.70;;;;;;;;;;4966751;28;20246;-75
2023/11/04 00:04:37;;;;;;;5.90;1.83;;;;;;;;;;4937944;28;20246;-75
2023/11/04 00:07:05;;;;;;;7.27;1.67;;;;;;;;;;4929573;28;20246;-75
2023/11/04 00:09:33;;;;;;;3.80;1.90;;;;;;;;;;4958593;28;20289;-74
2023/11/04 00:11:58;;;;;;;5.03;1.57;;;;;;;;;;4937593;28;20223;-75
2023/11/04 00:14:28;;;;;;;4.90;2.07;;;;;;;;;;4952997;28;20230;-75
2023/11/04 00:16:54;;;;;;;8.47;1.80;;;;;;;;;;4968500;28;20218;-75
2023/11/04 00:19:19;;;;;;;3.83;1.80;;;;;;;;;;4948547;28;20219;-75
2023/11/04 00:21:47;;;;;;;5.57;1.73;;;;;;;;;;4968117;28;20721;-75
2023/11/04 00:24:13;;;;;;;6.23;2.00;;;;;;;;;;4949711;28;20223;-75
2023/11/04 00:26:41;;;;;;;4.10;1.43;;;;;;;;;;4983917;28;20227;-74
2023/11/04 00:29:07;;;;;;;5.33;1.87;;;;;;;;;;4932565;28;20227;-75
2023/11/04 00:31:40;;;;;;;4.13;1.63;;;;;;;;;;4935397;28;20231;-75
2023/11/04 00:34:10;;;;;;;5.93;2.00;;;;;;;;;;4966821;28;20227;-76
2023/11/04 00:36:38;;;;;;;5.17;1.90;;;;;;;;;;4951976;28;20222;-75
2023/11/04 00:39:04;;;;;;;4.77;1.60;;;;;;;;;;4949559;28;20293;-75
2023/11/04 00:41:32;;;;;;;5.43;1.70;;;;;;;;;;4925739;29;20715;-75
2023/11/04 00:44:05;;;;;;;4.93;1.87;;;;;;;;;;4949166;28;20238;-74
2023/11/04 00:46:33;;;;;;;3.23;1.70;;;;;;;;;;4951053;28;20294;-74
2023/11/04 00:48:59;;;;;;;7.10;2.07;;;;;;;;;;4950021;28;20237;-74
2023/11/04 00:51:26;;;;;;;7.10;2.20;;;;;;;;;;4933997;28;20223;-73
2023/11/04 00:53:56;;;;;;;5.57;1.83;;;;;;;;;;4949917;28;20242;-75
2023/11/04 00:56:22;;;;;;;4.97;1.90;;;;;;;;;;4950244;28;20670;-75
2023/11/04 00:58:48;;;;;;;6.17;1.47;;;;;;;;;;4950046;28;20229;-75
2023/11/04 01:01:14;;;;;;;2.63;1.33;;;;;;;;;;4934262;28;20223;-75
2023/11/04 01:03:40;;;;;;;4.00;1.87;;;;;;;;;;4934504;28;20313;-75
2023/11/04 01:06:08;;;;;;;8.57;1.87;;;;;;;;;;4956284;28;20230;-75
2023/11/04 01:08:38;;;;;;;5.00;1.87;;;;;;;;;;4948941;28;20234;-75
2023/11/04 01:11:03;;;;;;;6.03;1.60;;;;;;;;;;4950104;28;20222;-76
2023/11/04 01:13:29;;;;;;;4.20;1.50;;;;;;;;;;4952056;28;20246;-75
2023/11/04 01:15:54;;;;;;;5.23;1.77;;;;;;;;;;4935220;28;20604;-75
2023/11/04 01:18:20;;;;;;;2.83;1.63;;;;;;;;;;4933086;28;20278;-75
2023/11/04 01:20:46;;;;;;;5.57;1.80;;;;;;;;;;4949927;28;20501;-75
2023/11/04 01:23:19;;;;;;;6.13;2.07;;;;;;;;;;4955192;28;20222;-75
2023/11/04 01:25:47;;;;;;;4.17;1.73;;;;;;;;;;4949438;28;20229;-75
2023/11/04 01:28:13;;;;;;;4.00;1.87;;;;;;;;;;4948854;28;20227;-75
2023/11/04 01:30:38;;;;;;;3.67;1.80;;;;;;;;;;4935395;28;20219;-74
2023/11/04 01:33:07;;;;;;;3.13;1.47;;;;;;;;;;4949431;28;20233;-75
2023/11/04 01:35:34;;;;;;;4.33;1.57;;;;;;;;;;4948605;28;20226;-75
2023/11/04 01:38:00;;;;;;;3.93;1.53;;;;;;;;;;4922049;28;20309;-75
2023/11/04 01:40:26;;;;;;;3.30;1.73;;;;;;;;;;4965029;28;20230;-75
2023/11/04 01:42:51;;;;;;;6.97;2.00;;;;;;;;;;4935170;28;20222;-75
2023/11/04 01:45:18;;;;;;;4.33;1.50;;;;;;;;;;4964398;28;20229;-74
2023/11/04 01:47:48;;;;;;;5.70;1.77;;;;;;;;;;4932137;28;20230;-75
2023/11/04 01:50:14;;;;;;;2.80;1.40;;;;;;;;;;4931111;28;20215;-75
2023/11/04 01:52:42;;;;;;;6.53;1.70;;;;;;;;;;4970589;28;20226;-75
2023/11/04 01:55:10;;;;;;;3.40;1.80;;;;;;;;;;4964966;28;20234;-75
2023/11/04 01:57:38;;;;;;;3.40;1.53;;;;;;;;;;4938345;28;20222;-75
2023/11/04 02:00:04;;;;;;;7.23;1.90;;;;;;;;;;4931910;28;20305;-75
2023/11/04 02:02:38;;;;;;;4.10;1.63;;;;;;;;;;4934948;28;20297;-75
2023/11/04 02:05:03;;;;;;;3.27;1.57;;;;;;;;;;4970919;28;20234;-76
2023/11/04 02:07:29;;;;;;;6.20;1.50;;;;;;;;;;4941475;28;20228;-75
2023/11/04 02:09:55;;;;;;;6.60;1.70;;;;;;;;;;4971915;28;20215;-75
2023/11/04 02:12:21;;;;;;;7.80;1.90;;;;;;;;;;4940053;28;20804;-74
2023/11/04 02:14:53;;;;;;;4.67;1.70;;;;;;;;;;4948678;28;20250;-75
2023/11/04 02:17:20;;;;;;;3.67;1.60;;;;;;;;;;4935449;28;20654;-75
2023/11/04 02:19:46;;;;;;;3.30;1.57;;;;;;;;;;4949213;28;20219;-74
2023/11/04 02:22:15;;;;;;;7.47;1.50;;;;;;;;;;4934160;28;20289;-75
2023/11/04 02:24:40;;;;;;;5.40;1.70;;;;;;;;;;4933833;28;20787;-74
2023/11/04 02:27:10;;;;;;;3.93;1.63;;;;;;;;;;4949351;28;20237;-75
2023/11/04 02:29:37;;;;;;;4.20;1.47;;;;;;;;;;4948188;28;20226;-75
2023/11/04 02:32:03;;;;;;;4.73;1.57;;;;;;;;;;4950572;28;20230;-75
2023/11/04 02:34:28;;;;;;;5.37;2.10;;;;;;;;;;4948731;28;20226;-75
2023/11/04 02:36:56;;;;;;;3.10;1.50;;;;;;;;;;4950251;28;20226;-75
2023/11/04 02:39:22;;;;;;;4.53;1.60;;;;;;;;;;4963307;28;20215;-75
2023/11/04 02:41:52;;;;;;;5.30;1.57;;;;;;;;;;4946789;28;20309;-75
2023/11/04 02:44:18;;;;;;;4.47;1.80;;;;;;;;;;4963763;28;20235;-75
2023/11/04 02:46:43;;;;;;;3.17;1.40;;;;;;;;;;4956380;28;20364;-75
2023/11/04 02:49:09;;;;;;;3.90;1.53;;;;;;;;;;4947726;28;20227;-75
2023/11/04 02:51:39;;;;;;;3.67;1.37;;;;;;;;;;4938806;28;20311;-75
2023/11/04 02:54:07;;;;;;;4.80;1.60;;;;;;;;;;4947325;28;20239;-74
2023/11/04 02:56:33;;;;;;;3.27;1.50;;;;;;;;;;4981255;28;20278;-74
2023/11/04 02:58:58;;;;;;;4.83;1.70;;;;;;;;;;4949433;28;20641;-74
2023/11/04 03:01:24;;;;;;;8.77;1.93;;;;;;;;;;4951814;28;20219;-75
2023/11/04 03:03:49;;;;;;;3.53;1.70;;;;;;;;;;4953176;28;20278;-75
2023/11/04 03:06:26;;;;;;;5.97;1.87;;;;;;;;;;4953207;28;20231;-74
2023/11/04 03:08:52;;;;;;;8.27;1.43;;;;;;;;;;4951478;28;20645;-75
2023/11/04 03:11:17;;;;;;;4.80;2.00;;;;;;;;;;4935092;28;20227;-74
2023/11/04 03:13:45;;;;;;;3.87;1.70;;;;;;;;;;4937554;29;20305;-74
2023/11/04 03:16:18;;;;;;;6.50;1.83;;;;;;;;;;4949688;28;20229;-75
2023/11/04 03:18:44;;;;;;;5.40;1.70;;;;;;;;;;4957138;28;20219;-75
2023/11/04 03:21:09;;;;;;;4.20;1.63;;;;;;;;;;4935014;28;20219;-75
2023/11/04 03:23:39;;;;;;;3.70;1.50;;;;;;;;;;4936795;29;20684;-75
2023/11/04 03:26:07;;;;;;;2.33;1.53;;;;;;;;;;4956472;28;20237;-75
2023/11/04 03:28:35;;;;;;;3.43;1.50;;;;;;;;;;4952325;28;20266;-75
2023/11/04 03:31:04;;;;;;;4.77;1.77;;;;;;;;;;4960185;28;20226;-74
2023/11/04 03:33:37;;;;;;;5.43;1.63;;;;;;;;;;4943722;28;20227;-75
2023/11/04 03:36:02;;;;;;;2.60;1.47;;;;;;;;;;4968507;28;20250;-75
2023/11/04 03:38:28;;;;;;;3.50;1.50;;;;;;;;;;4935890;29;20254;-75
2023/11/04 03:40:53;;;;;;;5.50;1.47;;;;;;;;;;4936239;28;20673;-74
2023/11/04 03:43:22;;;;;;;3.03;1.77;;;;;;;;;;4951300;28;20219;-75
2023/11/04 03:45:50;;;;;;;5.80;1.87;;;;;;;;;;4952730;28;20612;-75
2023/11/04 03:48:17;;;;;;;5.47;2.00;;;;;;;;;;4967695;28;20783;-75
2023/11/04 03:50:50;;;;;;;3.90;1.43;;;;;;;;;;4935800;28;20685;-75
2023/11/04 03:53:18;;;;;;;4.53;1.47;;;;;;;;;;4936405;28;20218;-76
2023/11/04 03:55:46;;;;;;;5.23;1.50;;;;;;;;;;4951282;28;20747;-75
2023/11/04 03:58:16;;;;;;;3.30;1.50;;;;;;;;;;4942370;28;20755;-75
2023/11/04 04:04:35;;;;;;;5.43;1.70;;;;;;;;;;4952105;28;20225;-75
2023/11/04 04:07:00;;;;;;;6.13;1.60;;;;;;;;;;4941930;28;20676;-75
2023/11/04 04:09:32;;;;;;;5.53;1.43;;;;;;;;;;4968237;28;20230;-75
2023/11/04 04:11:57;;;;;;;3.33;1.50;;;;;;;;;;4940106;28;20247;-75
2023/11/04 04:14:23;;;;;;;5.07;1.53;;;;;;;;;;4950573;28;20234;-75
2023/11/04 04:16:51;;;;;;;5.90;1.40;;;;;;;;;;4950763;28;20239;-74
2023/11/04 04:19:19;;;;;;;3.77;1.53;;;;;;;;;;4950544;28;20687;-74
2023/11/04 04:21:44;;;;;;;6.93;1.70;;;;;;;;;;4952693;28;20223;-74
2023/11/04 04:24:13;;;;;;;3.43;1.43;;;;;;;;;;4956469;28;20219;-75
2023/11/04 04:26:40;;;;;;;7.20;1.60;;;;;;;;;;4955488;28;20294;-75
2023/11/04 04:29:08;;;;;;;5.17;1.77;;;;;;;;;;4950259;28;20226;-75
2023/11/04 04:31:34;;;;;;;6.93;1.70;;;;;;;;;;4950444;28;20682;-74
2023/11/04 04:34:02;;;;;;;5.10;1.57;;;;;;;;;;4950197;28;20218;-73
2023/11/04 04:36:28;;;;;;;4.47;1.77;;;;;;;;;;4951505;28;20708;-74
2023/11/04 04:38:55;;;;;;;4.33;1.50;;;;;;;;;;4950252;28;20230;-75
2023/11/04 04:41:21;;;;;;;7.03;1.70;;;;;;;;;;4964899;28;20223;-74
2023/11/04 04:43:46;;;;;;;3.40;1.60;;;;;;;;;;4957767;28;20740;-74
2023/11/04 04:46:12;;;;;;;2.67;1.40;;;;;;;;;;4950973;28;20235;-75
2023/11/04 04:48:37;;;;;;;3.90;1.60;;;;;;;;;;4952143;28;20230;-75
2023/11/04 04:51:03;;;;;;;6.50;1.70;;;;;;;;;;4923492;28;20222;-75
2023/11/04 04:53:32;;;;;;;3.90;1.47;;;;;;;;;;4951318;28;20242;-75
2023/11/04 04:56:02;;;;;;;7.03;1.90;;;;;;;;;;4935413;28;20229;-75
2023/11/04 04:58:30;;;;;;;4.57;1.77;;;;;;;;;;4914900;29;20773;-75
2023/11/04 05:01:00;;;;;;;4.80;1.77;;;;;;;;;;4938384;28;20249;-74
2023/11/04 05:03:28;;;;;;;4.53;1.80;;;;;;;;;;4952756;28;20316;-74
2023/11/04 05:05:56;;;;;;;4.90;1.50;;;;;;;;;;4957157;28;20310;-74
2023/11/04 05:08:22;;;;;;;2.27;1.30;;;;;;;;;;4950427;28;20226;-74
2023/11/04 05:10:50;;;;;;;4.33;1.83;;;;;;;;;;4939591;28;20238;-75
2023/11/04 05:13:18;;;;;;;4.03;1.57;;;;;;;;;;4949039;28;20215;-75
2023/11/04 05:15:44;;;;;;;4.70;2.07;;;;;;;;;;4966104;28;20660;-75
2023/11/04 05:18:11;;;;;;;4.43;1.67;;;;;;;;;;4964306;28;20246;-75
2023/11/04 05:20:37;;;;;;;5.57;1.90;;;;;;;;;;4933846;29;20218;-74
2023/11/04 05:23:07;;;;;;;4.60;1.67;;;;;;;;;;4949534;28;20238;-74
2023/11/04 05:25:33;;;;;;;3.93;1.33;;;;;;;;;;4951005;28;20399;-75
2023/11/04 05:28:04;;;;;;;5.10;1.73;;;;;;;;;;4932397;29;20236;-74
2023/11/04 05:30:34;;;;;;;3.17;1.47;;;;;;;;;;4950099;28;20404;-75
2023/11/04 05:33:05;;;;;;;3.27;1.33;;;;;;;;;;4949146;28;20218;-74
2023/11/04 05:35:33;;;;;;;4.07;1.77;;;;;;;;;;4955093;28;20227;-75
2023/11/04 05:37:59;;;;;;;5.17;1.70;;;;;;;;;;4930765;28;20239;-75
2023/11/04 05:40:28;;;;;;;2.93;1.40;;;;;;;;;;4949152;28;20222;-75
2023/11/04 05:42:57;;;;;;;6.57;1.80;;;;;;;;;;4955890;28;20237;-75
2023/11/04 05:45:25;;;;;;;3.73;1.60;;;;;;;;;;4949495;28;20314;-75
2023/11/04 05:47:55;;;;;;;2.43;1.30;;;;;;;;;;4949099;28;20608;-75
2023/11/04 05:50:24;;;;;;;7.77;1.50;;;;;;;;;;4932681;28;20269;-75
2023/11/04 05:52:50;;;;;;;6.73;2.00;;;;;;;;;;4941018;28;20588;-75
2023/11/04 05:55:20;;;;;;;5.10;1.57;;;;;;;;;;4950324;28;20684;-75
2023/11/04 05:57:48;;;;;;;7.10;1.87;;;;;;;;;;4922780;29;20237;-75
2023/11/04 06:00:16;;;;;;;3.60;1.50;;;;;;;;;;4947881;28;20918;-74
2023/11/04 06:02:42;;;;;;;3.53;1.50;;;;;;;;;;4948942;28;20706;-75
2023/11/04 06:05:08;;;;;;;4.07;1.90;;;;;;;;;;4948524;28;20250;-75
2023/11/04 06:07:34;;;;;;;4.57;2.00;;;;;;;;;;4964621;28;20228;-74
2023/11/04 06:10:08;;;;;;;3.57;1.63;;;;;;;;;;4968983;28;20222;-74
2023/11/04 06:12:34;;;;;;;4.90;1.67;;;;;;;;;;4963701;28;20678;-74
2023/11/04 06:14:59;;;;;;;3.03;1.40;;;;;;;;;;4952545;28;20318;-74
2023/11/04 06:17:25;;;;;;;5.13;1.70;;;;;;;;;;4933700;28;20632;-75
2023/11/04 06:19:50;;;;;;;5.73;1.70;;;;;;;;;;4965746;28;20221;-75
2023/11/04 06:22:21;;;;;;;4.17;1.50;;;;;;;;;;4949467;28;20222;-74
2023/11/04 06:24:52;;;;;;;3.43;1.40;;;;;;;;;;4948596;28;20214;-74
2023/11/04 06:27:20;;;;;;;6.87;1.47;;;;;;;;;;4950523;28;20235;-75
2023/11/04 06:29:53;;;;;;;5.87;1.43;;;;;;;;;;4948388;28;20259;-75
2023/11/04 06:32:23;;;;;;;3.20;1.50;;;;;;;;;;4949173;28;20238;-75
2023/11/04 06:34:51;;;;;;;2.90;1.40;;;;;;;;;;4933104;28;20226;-74
2023/11/04 06:37:16;;;;;;;6.83;1.93;;;;;;;;;;4952255;28;20223;-75
2023/11/04 06:39:44;;;;;;;2.20;1.50;;;;;;;;;;4953806;28;20240;-75
2023/11/04 06:42:14;;;;;;;3.43;1.20;;;;;;;;;;4950802;28;20648;-75
2023/11/04 06:44:39;;;;;;;4.10;1.40;;;;;;;;;;4937572;28;20929;-75
2023/11/04 06:47:06;;;;;;;2.70;1.37;;;;;;;;;;4941519;28;20227;-75
2023/11/04 06:49:34;;;;;;;2.43;1.50;;;;;;;;;;4984336;28;20676;-74
2023/11/04 06:52:01;;;;;;;3.53;1.40;;;;;;;;;;4937045;28;20309;-74
2023/11/04 06:54:27;;;;;;;2.43;1.50;;;;;;;;;;4951793;28;20230;-75
2023/11/04 06:56:54;;;;;;;2.30;1.27;;;;;;;;;;4923716;29;20215;-74
2023/11/04 06:59:22;;;;;;;3.10;1.60;;;;;;;;;;4965806;28;20234;-75
2023/11/04 07:01:53;;;;;;;2.83;1.47;;;;;;;;;;4972441;28;20227;-76
2023/11/04 07:04:20;;;;;;;4.93;1.50;;;;;;;;;;4936339;28;20226;-74
2023/11/04 07:06:51;;;;;;;4.13;1.50;;;;;;;;;;4952619;28;20223;-74
2023/11/04 07:09:21;;;;;;;3.90;1.30;;;;;;;;;;4922693;28;20363;-75
2023/11/04 07:11:47;;;;;;;4.20;1.53;;;;;;;;;;4984201;28;20250;-74
2023/11/04 07:14:14;;;;;;;2.47;1.30;;;;;;;;;;4965735;28;20276;-75
2023/11/04 07:16:42;;;;;;;2.30;1.50;;;;;;;;;;4969540;28;20224;-75
2023/11/04 07:19:07;;;;;;;3.00;1.40;;;;;;;;;;4966988;28;20231;-75
2023/11/04 07:21:37;;;;;;;3.23;1.80;;;;;;;;;;4934124;28;20230;-75
2023/11/04 07:24:06;;;;;;;3.20;1.27;;;;;;;;;;4952006;28;20223;-75
2023/11/04 07:26:31;;;;;;;3.33;1.40;;;;;;;;;;4950892;28;20234;-74
2023/11/04 07:29:00;;;;;;;2.50;1.20;;;;;;;;;;4970645;28;20606;-75
2023/11/04 07:31:25;;;;;;;3.00;1.23;;;;;;;;;;4957455;28;20231;-75
2023/11/04 07:33:53;;;;;;;1.67;1.13;;;;;;;;;;4943472;29;20225;-74
2023/11/04 07:36:28;;;;;;;4.03;1.43;;;;;;;;;;4924085;28;20223;-75
2023/11/04 07:38:57;;;;;;;3.33;2.23;;;;;;;;;;4969454;28;20218;-74
2023/11/04 07:41:25;;;;;;;6.53;1.43;;;;;;;;;;4934993;28;20306;-76
2023/11/04 07:43:51;;;;;;;3.27;1.07;;;;;;;;;;4953336;28;20227;-73
2023/11/04 07:46:16;;;;;;;3.13;1.30;;;;;;;;;;4951278;28;20239;-74
2023/11/04 07:48:42;;;;;;;4.03;1.40;;;;;;;;;;4950241;28;20250;-74
2023/11/04 07:51:10;;;;;;;2.93;1.37;;;;;;;;;;4939472;28;20234;-74
2023/11/04 07:53:36;;;;;;;2.30;1.20;;;;;;;;;;4952172;28;20226;-74
2023/11/04 07:56:04;;;;;;;1.57;1.03;;;;;;;;;;4983914;28;20227;-74
2023/11/04 07:58:32;;;;;;;2.93;1.20;;;;;;;;;;4951453;28;20254;-74
2023/11/04 08:01:02;;;;;;;2.00;1.20;;;;;;;;;;4968116;28;20231;-74
2023/11/04 08:03:30;;;;;;;2.33;1.27;;;;;;;;;;4940759;28;20222;-74
2023/11/04 08:05:58;;;;;;;2.60;1.50;;;;;;;;;;4956609;28;20241;-73
2023/11/04 08:08:24;;;;;;;1.43;1.10;;;;;;;;;;4951637;28;20375;-74
2023/11/04 08:10:49;;;;;;;1.53;1.00;;;;;;;;;;4953712;28;20239;-74
2023/11/04 08:13:15;;;;;;;2.30;1.20;;;;;;;;;;4951277;28;20610;-74
2023/11/04 08:15:45;;;;;;;4.77;1.10;;;;;;;;;;4967821;28;20229;-74
2023/11/04 08:18:11;;;;;;;2.10;1.27;;;;;;;;;;4951490;28;20321;-74
2023/11/04 08:20:39;;;;;;;1.47;1.10;;;;;;;;;;4951740;28;20225;-74
2023/11/04 08:23:05;;;;;;;4.00;1.50;;;;;;;;;;4952102;28;20218;-74
2023/11/04 08:25:34;;;;;;;1.07;0.93;;;;;;;;;;4971853;28;20321;-74
2023/11/04 08:27:59;;;;;;;1.53;1.20;;;;;;;;;;4926992;29;20661;-74
2023/11/04 08:30:28;;;;;;;1.17;0.90;;;;;;;;;;4951621;28;20225;-76
2023/11/04 08:32:53;;;;;;;2.13;1.23;;;;;;;;;;4952724;28;20226;-75
2023/11/04 08:35:19;;;;;;;1.03;0.97;;;;;;;;;;4967426;28;20252;-76
2023/11/04 08:37:45;;;;;;;2.83;1.33;;;;;;;;;;4936006;28;20231;-74
2023/11/04 08:40:14;;;;;;;2.60;1.30;;;;;;;;;;4936063;28;20282;-75
2023/11/04 08:42:45;;;;;;;1.27;1.17;;;;;;;;;;4951843;28;20226;-74
2023/11/04 08:45:13;;;;;;;1.90;0.90;;;;;;;;;;4980363;28;20235;-74
2023/11/04 08:47:40;;;;;;;3.57;1.20;;;;;;;;;;4951097;28;20230;-76
2023/11/04 08:50:10;;;;;;;1.77;1.20;;;;;;;;;;4956079;28;20223;-75
2023/11/04 08:52:38;;;;;;;1.60;0.83;;;;;;;;;;4951117;28;20354;-75
2023/11/04 08:55:09;;;;;;;1.60;1.13;;;;;;;;;;4952021;28;20593;-75
2023/11/04 08:57:40;;;;;;;1.50;0.90;;;;;;;;;;4951499;28;20306;-75
2023/11/04 09:00:07;;;;;;;3.13;1.17;;;;;;;;;;4949228;28;20607;-76
2023/11/04 09:02:32;;;;;;;0.83;0.70;;;;;;;;;;4952746;28;20775;-76
2023/11/04 09:05:00;;;;;;;1.00;0.87;;;;;;;;;;4937724;28;20219;-74
2023/11/04 09:07:27;;;;;;;3.03;0.90;;;;;;;;;;4948143;28;20215;-74
2023/11/04 09:09:52;;;;;;;0.90;0.90;;;;;;;;;;4983847;28;20669;-75
2023/11/04 09:12:18;;;;;;;1.20;1.00;;;;;;;;;;4936633;28;20241;-75
2023/11/04 09:14:43;;;;;;;1.23;1.03;;;;;;;;;;4966909;28;20222;-75
2023/11/04 09:17:09;;;;;;;2.00;1.00;;;;;;;;;;4934306;28;20610;-76
2023/11/04 09:19:37;;;;;;;1.27;1.00;;;;;;;;;;4964932;28;20250;-75
2023/11/04 09:22:02;;;;;;;1.80;0.90;;;;;;;;;;4951633;28;20234;-75
2023/11/04 09:24:31;;;;;;;0.80;0.80;;;;;;;;;;4935517;28;20316;-75
2023/11/04 09:26:59;;;;;;;1.33;1.00;;;;;;;;;;4951010;28;20223;-75
2023/11/04 09:29:28;;;;;;;7.00;0.90;;;;;;;;;;4950156;28;20275;-75
2023/11/04 09:31:56;;;;;;;4.93;1.03;;;;;;;;;;4935135;28;20215;-75
2023/11/04 09:34:22;;;;;;;0.80;0.80;;;;;;;;;;4950405;28;20223;-74
2023/11/04 09:36:47;;;;;;;2.57;0.70;;;;;;;;;;4950811;28;20735;-75
2023/11/04 09:39:18;;;;;;;2.13;0.97;;;;;;;;;;4933830;28;20476;-74
2023/11/04 09:41:45;;;;;;;0.70;0.70;;;;;;;;;;4949386;28;20305;-75
2023/11/04 09:44:11;;;;;;;1.90;0.80;;;;;;;;;;4934034;28;20219;-74
2023/11/04 09:46:37;;;;;;;0.57;0.57;;;;;;;;;;4934372;28;20246;-75
2023/11/04 09:49:05;;;;;;;1.00;0.80;;;;;;;;;;4933649;28;20222;-74
2023/11/04 09:51:30;;;;;;;1.73;0.80;;;;;;;;;;4934182;28;20225;-75
2023/11/04 09:53:59;;;;;;;1.00;0.70;;;;;;;;;;4934872;28;20222;-76
2023/11/04 09:56:25;;;;;;;0.90;0.80;;;;;;;;;;4969813;28;20226;-74
2023/11/04 09:58:50;;;;;;;0.63;0.60;;;;;;;;;;4956951;28;20219;-75
2023/11/04 10:01:21;;;;;;;3.63;0.70;;;;;;;;;;4954563;28;20754;-77
2023/11/04 10:03:47;;;;;;;1.77;0.80;;;;;;;;;;4953063;28;20219;-75
2023/11/04 10:06:16;;;;;;;2.93;0.80;;;;;;;;;;4938663;28;20226;-75
2023/11/04 10:08:46;;;;;;;0.80;0.70;;;;;;;;;;4955010;28;20230;-76
2023/11/04 10:11:14;;;;;;;1.57;0.87;;;;;;;;;;4931368;28;20267;-76
2023/11/04 10:13:42;;;;;;;2.13;0.90;;;;;;;;;;4951353;28;20211;-76
2023/11/04 10:16:12;;;;;;;1.17;0.80;;;;;;;;;;4948259;28;20230;-76
2023/11/04 10:18:40;;;;;;;1.23;0.77;;;;;;;;;;4934160;28;20270;-76
2023/11/04 10:21:08;;;;;;;0.70;0.70;;;;;;;;;;4934045;28;20281;-76
2023/11/04 10:23:36;;;;;;;2.27;0.70;;;;;;;;;;4941836;28;20226;-76
2023/11/04 10:26:06;;;;;;;1.13;0.60;;;;;;;;;;4950051;28;20226;-76
2023/11/04 10:28:35;;;;;;;1.20;0.60;;;;;;;;;;4964699;28;20270;-77
2023/11/04 10:31:07;;;;;;;1.33;0.80;;;;;;;;;;4950327;28;20230;-76
2023/11/04 10:33:36;;;;;;;0.70;0.70;;;;;;;;;;4951462;28;20212;-76
2023/11/04 10:36:06;;;;;;;0.50;0.47;;;;;;;;;;4973686;28;20234;-76
2023/11/04 10:38:37;;;;;;;0.60;0.60;;;;;;;;;;4964278;28;20235;-76
2023/11/04 10:41:08;;;;;;;1.23;0.77;;;;;;;;;;4950022;28;20222;-78
2023/11/04 10:43:53;;;;;;;1.47;0.80;;;;;;;;;;4953498;28;20226;-76
2023/11/04 10:46:38;;;;;;;2.30;1.13;;;;;;;;;;4950171;28;20278;-76
2023/11/04 10:49:43;;;;;;;0.93;0.80;;;;;;;;;;4950227;28;20230;-74
2023/11/04 10:52:13;;;;;;;0.80;0.80;;;;;;;;;;4965617;28;20273;-76
2023/11/04 10:54:49;;;;;;;1.03;0.60;;;;;;;;;;4924313;29;20705;-74
2023/11/04 10:57:30;;;;;;;1.10;1.00;;;;;;;;;;4938683;28;20252;-75
2023/11/04 11:00:14;;;;;;;0.90;0.60;;;;;;;;;;4965124;28;20290;-76
2023/11/04 11:02:43;;;;;;;1.20;0.70;;;;;;;;;;4948595;28;20203;-75
2023/11/04 11:05:11;;;;;;;0.83;0.70;;;;;;;;;;4933108;28;20219;-75
2023/11/04 11:07:40;;;;;;;0.50;0.50;;;;;;;;;;4948468;28;20246;-75
2023/11/04 11:10:08;;;;;;;1.10;0.80;;;;;;;;;;4947563;28;20297;-75
2023/11/04 11:12:37;;;;;;;0.60;0.60;;;;;;;;;;4948361;28;20243;-75
2023/11/04 11:15:05;;;;;;;0.83;0.70;;;;;;;;;;4947536;28;20219;-74
2023/11/04 11:17:33;;;;;;;0.80;0.60;;;;;;;;;;4947821;28;20598;-77
2023/11/04 11:20:01;;;;;;;0.70;0.60;;;;;;;;;;4938107;28;20254;-75
2023/11/04 11:22:27;;;;;;;0.87;0.73;;;;;;;;;;4951776;28;20234;-75
2023/11/04 11:24:56;;;;;;;0.50;0.50;;;;;;;;;;4934848;29;20211;-75
2023/11/04 11:27:26;;;;;;;0.60;0.60;;;;;;;;;;4950071;28;20628;-75
2023/11/04 11:30:03;;;;;;;1.30;0.60;;;;;;;;;;4950132;28;20241;-77
2023/11/04 11:32:40;;;;;;;0.60;0.60;;;;;;;;;;4950925;28;20276;-75
2023/11/04 11:35:10;;;;;;;0.60;0.60;;;;;;;;;;4950852;28;20218;-75
2023/11/04 11:37:40;;;;;;;1.33;0.70;;;;;;;;;;4950148;28;20238;-75
2023/11/04 11:40:13;;;;;;;0.60;0.60;;;;;;;;;;4950057;28;20246;-76
2023/11/04 11:42:40;;;;;;;0.70;0.70;;;;;;;;;;4966791;28;20277;-75
2023/11/04 11:45:09;;;;;;;0.77;0.50;;;;;;;;;;4949304;28;20231;-75
2023/11/04 11:47:35;;;;;;;2.57;0.63;;;;;;;;;;4951579;28;20219;-74
2023/11/04 11:50:00;;;;;;;0.50;0.50;;;;;;;;;;4954823;28;20285;-74
2023/11/04 11:52:26;;;;;;;0.87;0.80;;;;;;;;;;4934958;28;20646;-74
2023/11/04 11:54:52;;;;;;;1.07;0.60;;;;;;;;;;4935027;29;20853;-74
2023/11/04 11:57:21;;;;;;;0.83;0.60;;;;;;;;;;4936665;28;20270;-74
2023/11/04 11:59:46;;;;;;;0.53;0.53;;;;;;;;;;4965998;28;20223;-74
2023/11/04 12:02:16;;;;;;;0.93;0.77;;;;;;;;;;4982653;28;20211;-74
2023/11/04 12:04:47;;;;;;;0.53;0.50;;;;;;;;;;4925142;29;20222;-73
2023/11/04 12:07:13;;;;;;;1.60;0.60;;;;;;;;;;4939818;28;20322;-73
2023/11/04 12:09:41;;;;;;;0.50;0.50;;;;;;;;;;4957508;28;20218;-74
2023/11/04 12:12:09;;;;;;;0.97;0.50;;;;;;;;;;4954593;28;20226;-74
2023/11/04 12:14:37;;;;;;;1.30;0.50;;;;;;;;;;4937891;28;20207;-75
2023/11/04 12:17:05;;;;;;;0.60;0.60;;;;;;;;;;4983996;28;20214;-74
2023/11/04 12:19:31;;;;;;;0.97;0.50;;;;;;;;;;4936205;28;20222;-74
2023/11/04 12:21:57;;;;;;;0.70;0.70;;;;;;;;;;4951474;28;20649;-73
2023/11/04 12:24:25;;;;;;;1.37;0.50;;;;;;;;;;4936292;28;20302;-74
2023/11/04 12:26:54;;;;;;;0.70;0.60;;;;;;;;;;4951448;28;20238;-75
2023/11/04 12:29:19;;;;;;;0.83;0.70;;;;;;;;;;4950529;28;20254;-74
2023/11/04 12:31:47;;;;;;;0.60;0.50;;;;;;;;;;4950566;28;20759;-74
2023/11/04 12:34:13;;;;;;;2.10;0.60;;;;;;;;;;4935358;28;20717;-73
2023/11/04 12:36:40;;;;;;;1.67;0.70;;;;;;;;;;4967496;28;20219;-74
2023/11/04 12:39:08;;;;;;;7.30;0.50;;;;;;;;;;4966101;28;20704;-74
2023/11/04 12:41:36;;;;;;;0.73;0.50;;;;;;;;;;4949860;28;20254;-73
2023/11/04 12:44:02;;;;;;;0.67;0.50;;;;;;;;;;4935376;29;20227;-74
2023/11/04 12:46:32;;;;;;;0.97;0.40;;;;;;;;;;4936382;28;20231;-74
2023/11/04 12:49:00;;;;;;;0.47;0.47;;;;;;;;;;4956458;28;20246;-73
2023/11/04 12:51:26;;;;;;;0.60;0.60;;;;;;;;;;4947505;28;20282;-74
2023/11/04 12:53:54;;;;;;;0.40;0.40;;;;;;;;;;4948999;28;20227;-74
2023/11/04 12:56:19;;;;;;;2.73;0.80;;;;;;;;;;4982269;28;20218;-73
2023/11/04 12:58:47;;;;;;;0.50;0.50;;;;;;;;;;4949130;28;20234;-75
2023/11/04 13:01:17;;;;;;;0.40;0.40;;;;;;;;;;4917038;28;20356;-75
2023/11/04 13:03:43;;;;;;;0.47;0.47;;;;;;;;;;4950143;28;20247;-73
2023/11/04 13:06:08;;;;;;;1.53;0.43;;;;;;;;;;4977441;28;20239;-74
2023/11/04 13:08:39;;;;;;;1.53;0.60;;;;;;;;;;4948828;28;20246;-73
2023/11/04 13:11:10;;;;;;;0.53;0.53;;;;;;;;;;4947464;28;20270;-75
2023/11/04 13:13:38;;;;;;;0.40;0.40;;;;;;;;;;4965246;28;20218;-75
2023/11/04 13:16:09;;;;;;;0.50;0.50;;;;;;;;;;4964907;28;20270;-75
2023/11/04 13:18:36;;;;;;;0.67;0.50;;;;;;;;;;4949710;28;20231;-75
2023/11/04 13:21:02;;;;;;;0.67;0.50;;;;;;;;;;4951743;28;20317;-74
2023/11/04 13:23:27;;;;;;;0.87;0.60;;;;;;;;;;4980862;28;20219;-75
2023/11/04 13:25:53;;;;;;;0.50;0.50;;;;;;;;;;4956651;28;20223;-76
2023/11/04 13:28:19;;;;;;;0.40;0.40;;;;;;;;;;4951372;28;20230;-75
2023/11/04 13:30:46;;;;;;;0.57;0.57;;;;;;;;;;4951916;28;20229;-75
2023/11/04 13:33:13;;;;;;;0.93;0.47;;;;;;;;;;4933998;28;20756;-75
2023/11/04 13:35:39;;;;;;;0.50;0.50;;;;;;;;;;4979710;28;20234;-74
2023/11/04 13:38:09;;;;;;;1.07;0.30;;;;;;;;;;4964332;28;20226;-75
2023/11/04 13:40:34;;;;;;;0.40;0.40;;;;;;;;;;4955050;28;20231;-73
2023/11/04 13:43:00;;;;;;;0.73;0.40;;;;;;;;;;4934602;28;20688;-73
2023/11/04 13:45:25;;;;;;;2.53;0.80;;;;;;;;;;4964902;28;20234;-74
2023/11/04 13:47:56;;;;;;;1.07;0.50;;;;;;;;;;4910184;28;20218;-77
2023/11/04 13:50:23;;;;;;;2.83;0.63;;;;;;;;;;4949409;28;20284;-76
2023/11/04 13:52:51;;;;;;;0.60;0.60;;;;;;;;;;4934001;28;20230;-76
2023/11/04 13:55:17;;;;;;;1.80;0.60;;;;;;;;;;4963907;28;20230;-76
2023/11/04 13:57:46;;;;;;;0.40;0.40;;;;;;;;;;4951145;28;20226;-76
2023/11/04 14:00:14;;;;;;;0.60;0.60;;;;;;;;;;4981317;28;20322;-76
2023/11/04 14:02:40;;;;;;;0.40;0.40;;;;;;;;;;4949605;28;20214;-77
2023/11/04 14:05:05;;;;;;;0.57;0.57;;;;;;;;;;4948509;28;20606;-77
2023/11/04 14:07:31;;;;;;;2.57;0.47;;;;;;;;;;4933230;28;20227;-76
2023/11/04 14:09:57;;;;;;;0.97;0.70;;;;;;;;;;4950019;28;20803;-75
2023/11/04 14:12:30;;;;;;;1.70;1.40;;;;;;;;;;4929725;28;20219;-74
2023/11/04 14:14:57;;;;;;;2.87;2.67;;;;;;;;;;4933103;29;20222;-75
2023/11/04 14:17:28;;;;;;;1.70;1.60;;;;;;;;;;4930645;28;20226;-75
2023/11/04 14:19:56;;;;;;;1.43;0.60;;;;;;;;;;4950202;28;20223;-75
2023/11/04 14:22:21;;;;;;;1.17;0.60;;;;;;;;;;4936578;28;20294;-75
2023/11/04 14:24:49;;;;;;;1.00;0.70;;;;;;;;;;4948299;28;20604;-75
2023/11/04 14:27:15;;;;;;;0.57;0.50;;;;;;;;;;4946384;28;20727;-75
2023/11/04 14:29:41;;;;;;;0.67;0.67;;;;;;;;;;4947448;28;20226;-75
2023/11/04 14:32:09;;;;;;;0.60;0.60;;;;;;;;;;4965813;28;20236;-75
2023/11/04 14:34:36;;;;;;;0.77;0.77;;;;;;;;;;4932335;28;20226;-76
2023/11/04 14:37:04;;;;;;;1.93;0.90;;;;;;;;;;4949873;28;20226;-75
2023/11/04 14:39:30;;;;;;;1.87;0.80;;;;;;;;;;4947851;28;20274;-75
2023/11/04 14:41:58;;;;;;;1.10;1.10;;;;;;;;;;4950579;28;20219;-75
2023/11/04 14:44:27;;;;;;;0.87;0.70;;;;;;;;;;4932451;28;20218;-76
2023/11/04 14:46:55;;;;;;;0.87;0.87;;;;;;;;;;4933600;29;20238;-75
2023/11/04 14:49:25;;;;;;;0.60;0.60;;;;;;;;;;4939471;28;20374;-75
2023/11/04 14:51:51;;;;;;;1.40;0.60;;;;;;;;;;4951543;28;20613;-75